createdAt,value
2018-05-31T00:01:06.194Z,3.72
2018-05-31T00:03:33.625Z,3.50
2018-05-31T00:06:01.070Z,3.60
2018-05-31T00:08:28.591Z,3.95
2018-05-31T00:10:56.069Z,4.45
2018-05-31T00:13:23.524Z,3.50
2018-05-31T00:15:50.973Z,3.72
2018-05-31T00:18:19.004Z,4.07
2018-05-31T00:20:46.440Z,4.05
2018-05-31T00:23:13.926Z,4.25
2018-05-31T00:25:41.495Z,3.30
2018-05-31T00:28:08.981Z,3.75
2018-05-31T00:30:36.436Z,3.50
2018-05-31T00:33:03.930Z,3.50
2018-05-31T00:35:31.504Z,4.87
2018-05-31T00:37:59.057Z,4.15
2018-05-31T00:40:26.528Z,4.57
2018-05-31T00:42:53.966Z,4.37
2018-05-31T00:45:21.376Z,5.78
2018-05-31T00:47:48.818Z,4.05
2018-05-31T00:50:16.305Z,5.20
2018-05-31T00:52:43.714Z,3.78
2018-05-31T00:55:12.331Z,3.95
2018-05-31T00:57:39.738Z,4.45
2018-05-31T01:00:10.733Z,4.20
2018-05-31T01:02:38.232Z,5.05
2018-05-31T01:05:05.662Z,4.10
2018-05-31T01:07:33.129Z,4.62
2018-05-31T01:10:00.547Z,5.57
2018-05-31T01:12:27.993Z,3.87
2018-05-31T01:14:55.477Z,5.35
2018-05-31T01:17:22.933Z,4.80
2018-05-31T01:19:50.401Z,5.57
2018-05-31T01:22:17.881Z,4.30
2018-05-31T01:24:45.312Z,4.47
2018-05-31T01:27:12.951Z,4.68
2018-05-31T01:29:40.400Z,4.60
2018-05-31T01:32:07.939Z,4.40
2018-05-31T01:34:35.310Z,5.18
2018-05-31T01:37:02.794Z,4.80
2018-05-31T01:39:30.236Z,4.62
2018-05-31T01:41:57.740Z,5.03
2018-05-31T01:44:25.236Z,7.22
2018-05-31T01:46:52.739Z,4.95
2018-05-31T01:49:20.228Z,5.75
2018-05-31T01:51:47.805Z,4.22
2018-05-31T01:54:15.259Z,5.62
2018-05-31T01:56:42.692Z,7.95
2018-05-31T01:59:10.124Z,6.95
2018-05-31T02:01:37.592Z,7.18
2018-05-31T02:04:05.032Z,6.25
2018-05-31T02:06:32.448Z,5.35
2018-05-31T02:09:01.095Z,7.50
2018-05-31T02:11:28.528Z,5.18
2018-05-31T02:13:56.019Z,6.72
2018-05-31T02:16:23.511Z,6.22
2018-05-31T02:18:50.956Z,5.95
2018-05-31T02:21:18.399Z,7.00
2018-05-31T02:23:46.661Z,5.50
2018-05-31T02:26:14.158Z,5.65
2018-05-31T02:28:43.275Z,5.40
2018-05-31T02:31:10.728Z,3.30
2018-05-31T02:33:39.377Z,3.78
2018-05-31T02:36:06.803Z,5.35
2018-05-31T02:38:34.245Z,4.43
2018-05-31T02:41:01.730Z,8.45
2018-05-31T02:43:29.217Z,5.07
2018-05-31T02:45:56.735Z,4.07
2018-05-31T02:48:24.183Z,3.42
2018-05-31T02:50:51.638Z,5.12
2018-05-31T02:53:19.136Z,3.33
2018-05-31T02:55:46.572Z,4.80
2018-05-31T02:58:14.024Z,4.03
2018-05-31T03:00:41.490Z,4.75
2018-05-31T03:03:09.712Z,5.12
2018-05-31T03:05:37.195Z,5.25
2018-05-31T03:08:04.650Z,6.30
2018-05-31T03:10:32.184Z,6.55
2018-05-31T03:12:59.669Z,7.85
2018-05-31T03:15:27.100Z,7.75
2018-05-31T03:17:55.193Z,6.12
2018-05-31T03:20:22.665Z,6.40
2018-05-31T03:22:50.160Z,6.60
2018-05-31T03:25:17.635Z,6.20
2018-05-31T03:27:45.206Z,5.80
2018-05-31T03:30:12.957Z,4.87
2018-05-31T03:32:40.463Z,4.43
2018-05-31T03:35:07.912Z,6.43
2018-05-31T03:37:36.333Z,5.12
2018-05-31T03:40:03.814Z,5.47
2018-05-31T03:42:31.327Z,5.03
2018-05-31T03:44:58.796Z,6.70
2018-05-31T03:47:26.271Z,6.15
2018-05-31T03:49:53.703Z,5.43
2018-05-31T03:52:22.916Z,5.70
2018-05-31T03:54:50.429Z,8.10
2018-05-31T03:57:17.930Z,7.93
2018-05-31T03:59:46.469Z,9.52
2018-05-31T04:02:13.993Z,9.10
2018-05-31T04:04:41.438Z,8.80
2018-05-31T04:07:09.711Z,10.52
2018-05-31T04:09:37.163Z,10.90
2018-05-31T04:12:04.758Z,8.45
2018-05-31T04:14:32.202Z,7.55
2018-05-31T04:16:59.652Z,8.90
2018-05-31T04:19:27.082Z,7.65
2018-05-31T04:21:54.538Z,7.60
2018-05-31T04:24:22.077Z,7.65
2018-05-31T04:26:49.547Z,7.40
2018-05-31T04:29:17.169Z,5.28
2018-05-31T04:31:44.816Z,5.07
2018-05-31T04:34:12.441Z,5.18
2018-05-31T04:36:46.562Z,7.00
2018-05-31T04:39:13.980Z,7.12
2018-05-31T04:41:41.394Z,8.50
2018-05-31T04:44:08.838Z,8.07
2018-05-31T04:46:36.343Z,6.85
2018-05-31T04:49:03.886Z,6.18
2018-05-31T04:51:31.299Z,7.45
2018-05-31T04:54:01.817Z,6.10
2018-05-31T04:56:29.303Z,7.18
2018-05-31T04:58:56.720Z,7.82
2018-05-31T05:01:24.268Z,6.53
2018-05-31T05:03:51.748Z,7.32
2018-05-31T05:06:19.234Z,6.90
2018-05-31T05:08:46.777Z,9.15
2018-05-31T05:11:14.254Z,7.40
2018-05-31T05:13:43.059Z,8.93
2018-05-31T05:16:10.621Z,8.40
2018-05-31T05:18:38.201Z,6.45
2018-05-31T05:21:05.766Z,7.43
2018-05-31T05:23:33.257Z,7.22
2018-05-31T05:26:00.746Z,5.20
2018-05-31T05:28:28.211Z,6.35
2018-05-31T05:30:55.695Z,6.57
2018-05-31T05:33:23.180Z,6.45
2018-05-31T05:35:50.631Z,6.37
2018-05-31T05:38:18.093Z,5.95
2018-05-31T05:40:45.645Z,8.43
2018-05-31T05:43:17.764Z,7.03
2018-05-31T05:45:45.202Z,7.65
2018-05-31T05:48:12.781Z,7.30
2018-05-31T05:50:40.613Z,5.37
2018-05-31T05:53:08.130Z,6.87
2018-05-31T05:55:35.634Z,5.53
2018-05-31T05:58:03.213Z,4.37
2018-05-31T06:00:30.631Z,3.83
2018-05-31T06:02:58.119Z,2.62
2018-05-31T06:05:25.642Z,3.15
2018-05-31T06:07:53.107Z,3.33
2018-05-31T06:10:20.656Z,3.00
2018-05-31T06:12:48.187Z,2.87
2018-05-31T06:15:15.660Z,2.70
2018-05-31T06:17:43.180Z,2.42
2018-05-31T06:20:10.630Z,2.90
2018-05-31T06:22:39.003Z,2.53
2018-05-31T06:25:06.464Z,2.80
2018-05-31T06:27:33.908Z,2.97
2018-05-31T06:30:01.431Z,2.67
2018-05-31T06:32:32.617Z,4.62
2018-05-31T06:35:00.088Z,3.90
2018-05-31T06:37:28.017Z,3.87
2018-05-31T06:39:55.512Z,4.50
2018-05-31T06:42:23.976Z,3.90
2018-05-31T06:44:51.630Z,3.17
2018-05-31T06:47:19.057Z,3.62
2018-05-31T06:49:46.520Z,4.15
2018-05-31T06:52:14.029Z,3.78
2018-05-31T06:54:41.486Z,4.25
2018-05-31T06:57:08.949Z,3.70
2018-05-31T06:59:36.479Z,4.68
2018-05-31T07:02:03.901Z,3.17
2018-05-31T07:04:31.362Z,2.95
2018-05-31T07:06:58.844Z,3.12
2018-05-31T07:09:26.326Z,4.37
2018-05-31T07:11:53.846Z,3.58
2018-05-31T07:14:21.261Z,4.32
2018-05-31T07:16:48.862Z,4.62
2018-05-31T07:19:22.103Z,4.55
2018-05-31T07:21:49.653Z,4.35
2018-05-31T07:24:17.098Z,4.57
2018-05-31T07:26:44.701Z,6.05
2018-05-31T07:29:12.191Z,4.50
2018-05-31T07:31:39.770Z,5.32
2018-05-31T07:34:07.200Z,5.90
2018-05-31T07:36:34.689Z,4.65
2018-05-31T07:39:02.138Z,4.72
2018-05-31T07:41:29.737Z,5.95
2018-05-31T07:43:57.207Z,6.78
2018-05-31T07:46:24.982Z,6.05
2018-05-31T07:48:52.521Z,4.82
2018-05-31T07:51:20.180Z,7.97
2018-05-31T07:53:48.747Z,5.68
2018-05-31T07:56:16.333Z,7.43
2018-05-31T07:58:43.807Z,6.45
2018-05-31T08:01:11.432Z,6.90
2018-05-31T08:03:38.959Z,7.12
2018-05-31T08:06:07.643Z,7.57
2018-05-31T08:08:35.886Z,8.25
2018-05-31T08:11:03.457Z,5.80
2018-05-31T08:13:30.971Z,7.97
2018-05-31T08:15:58.431Z,6.25
2018-05-31T08:18:25.870Z,6.22
2018-05-31T08:20:55.073Z,6.37
2018-05-31T08:23:22.548Z,5.90
2018-05-31T08:25:50.894Z,7.30
2018-05-31T08:28:18.482Z,9.13
2018-05-31T08:30:45.895Z,6.03
2018-05-31T08:33:13.377Z,9.07
2018-05-31T08:35:41.751Z,7.45
2018-05-31T08:38:09.218Z,7.22
2018-05-31T08:40:36.866Z,6.82
2018-05-31T08:43:04.338Z,6.28
2018-05-31T08:45:31.756Z,5.18
2018-05-31T08:47:59.188Z,5.53
2018-05-31T08:50:26.777Z,6.03
2018-05-31T08:52:54.199Z,4.75
2018-05-31T08:55:21.671Z,5.70
2018-05-31T08:57:49.125Z,6.15
2018-05-31T09:00:16.651Z,6.70
2018-05-31T09:02:44.156Z,4.60
2018-05-31T09:05:11.607Z,4.97
2018-05-31T09:07:39.441Z,6.65
2018-05-31T09:10:06.869Z,5.47
2018-05-31T09:12:34.407Z,4.68
2018-05-31T09:15:01.950Z,4.57
2018-05-31T09:17:30.411Z,4.18
2018-05-31T09:19:57.823Z,5.53
2018-05-31T09:22:25.289Z,3.55
2018-05-31T09:24:52.917Z,4.10
2018-05-31T09:27:20.396Z,5.18
2018-05-31T09:29:47.901Z,5.10
2018-05-31T09:32:15.376Z,4.97
2018-05-31T09:34:42.802Z,4.90
2018-05-31T09:37:11.226Z,3.83
2018-05-31T09:39:38.765Z,3.97
2018-05-31T09:42:07.259Z,4.68
2018-05-31T09:44:34.802Z,3.33
2018-05-31T09:47:02.205Z,4.87
2018-05-31T09:49:29.642Z,3.40
2018-05-31T09:51:57.157Z,4.20
2018-05-31T09:54:24.599Z,5.05
2018-05-31T09:56:52.127Z,3.78
2018-05-31T09:59:19.668Z,5.25
2018-05-31T10:01:47.288Z,3.70
2018-05-31T10:04:14.822Z,4.05
2018-05-31T10:06:42.409Z,5.43
2018-05-31T10:09:09.875Z,4.28
2018-05-31T10:11:37.361Z,4.87
2018-05-31T10:14:04.905Z,4.93
2018-05-31T10:16:32.451Z,5.22
2018-05-31T10:18:59.943Z,5.37
2018-05-31T10:21:27.551Z,4.95
2018-05-31T10:23:55.075Z,4.47
2018-05-31T10:26:23.280Z,3.92
2018-05-31T10:28:51.083Z,6.72
2018-05-31T10:31:18.481Z,5.10
2018-05-31T10:33:45.976Z,5.30
2018-05-31T10:36:13.556Z,5.65
2018-05-31T10:38:41.034Z,4.65
2018-05-31T10:41:08.512Z,5.28
2018-05-31T10:43:36.095Z,4.50
2018-05-31T10:46:03.512Z,4.95
2018-05-31T10:48:31.026Z,4.00
2018-05-31T10:51:00.279Z,5.28
2018-05-31T10:53:28.436Z,4.87
2018-05-31T10:55:55.945Z,6.43
2018-05-31T10:58:23.424Z,6.22
2018-05-31T11:00:51.064Z,4.05
2018-05-31T11:03:22.194Z,8.30
2018-05-31T11:05:49.582Z,5.43
2018-05-31T11:08:17.019Z,7.00
2018-05-31T11:10:46.062Z,5.12
2018-05-31T11:13:13.510Z,5.05
2018-05-31T11:15:42.791Z,5.45
2018-05-31T11:18:10.260Z,6.07
2018-05-31T11:20:38.483Z,5.72
2018-05-31T11:23:06.190Z,6.82
2018-05-31T11:25:33.768Z,5.78
2018-05-31T11:28:01.261Z,6.37
2018-05-31T11:30:28.778Z,5.40
2018-05-31T11:32:56.233Z,5.60
2018-05-31T11:45:11.784Z,4.20
2018-05-31T11:47:39.203Z,6.80
2018-05-31T11:55:01.487Z,4.50
2018-05-31T11:59:57.262Z,6.35
2018-05-31T12:14:40.344Z,5.80
2018-05-31T12:41:40.380Z,5.40
2018-05-31T12:44:07.900Z,5.70
2018-05-31T13:03:46.454Z,5.15
2018-05-31T13:06:13.932Z,6.00
2018-05-31T13:08:41.440Z,5.07
2018-05-31T13:11:08.929Z,5.40
2018-05-31T13:13:36.566Z,4.75
2018-05-31T13:16:04.068Z,4.00
2018-05-31T13:38:08.090Z,5.05
2018-05-31T13:40:35.677Z,4.20
2018-05-31T13:43:03.236Z,4.20
2018-05-31T13:45:30.708Z,3.97
2018-05-31T13:47:58.256Z,5.97
2018-05-31T13:50:25.705Z,3.67
2018-05-31T13:52:53.290Z,5.05
2018-05-31T13:55:21.977Z,5.18
2018-05-31T13:57:50.199Z,4.80
2018-05-31T14:00:17.659Z,3.92
2018-05-31T14:02:45.203Z,5.40
2018-05-31T14:05:12.694Z,6.37
2018-05-31T14:07:40.216Z,6.50
2018-05-31T14:12:35.501Z,5.72
2018-05-31T14:17:29.959Z,6.55
2018-05-31T14:19:57.416Z,6.75
2018-05-31T14:22:24.854Z,4.78
2018-05-31T14:24:52.395Z,3.40
2018-05-31T14:27:19.843Z,2.80
2018-05-31T14:29:48.613Z,5.50
2018-05-31T14:32:16.084Z,3.33
2018-05-31T14:34:43.651Z,3.40
2018-05-31T14:37:11.832Z,4.00
2018-05-31T14:42:06.472Z,3.70
2018-05-31T14:51:55.083Z,4.30
2018-05-31T14:56:50.094Z,4.85
2018-05-31T14:59:17.660Z,4.25
2018-05-31T15:01:46.093Z,5.05
2018-05-31T15:04:13.809Z,4.97
2018-05-31T15:06:41.259Z,4.68
2018-05-31T15:09:08.801Z,4.95
2018-05-31T15:11:36.920Z,4.45
2018-05-31T15:14:04.924Z,4.35
2018-05-31T15:16:32.379Z,5.55
2018-05-31T15:18:59.885Z,4.68
2018-05-31T15:21:27.295Z,4.72
2018-05-31T15:23:55.294Z,4.57
2018-05-31T15:26:22.907Z,8.55
2018-05-31T15:28:50.483Z,5.32
2018-05-31T15:31:18.187Z,4.03
2018-05-31T15:33:45.701Z,4.78
2018-05-31T15:36:13.166Z,5.90
2018-05-31T15:38:41.549Z,4.50
2018-05-31T15:41:09.091Z,4.12
2018-05-31T15:43:37.251Z,3.65
2018-05-31T15:46:04.703Z,3.37
2018-05-31T15:48:32.156Z,3.30
2018-05-31T15:50:59.676Z,4.40
2018-05-31T15:53:27.239Z,3.28
2018-05-31T15:55:54.691Z,3.60
2018-05-31T15:58:22.190Z,3.97
2018-05-31T16:00:49.719Z,5.15
2018-05-31T16:03:18.976Z,4.12
2018-05-31T16:05:46.700Z,2.70
2018-05-31T16:08:17.067Z,3.70
2018-05-31T16:10:44.581Z,3.65
2018-05-31T16:13:12.972Z,4.20
2018-05-31T16:15:40.399Z,3.00
2018-05-31T16:18:07.989Z,2.25
2018-05-31T16:20:35.444Z,2.35
2018-05-31T16:23:03.429Z,2.92
2018-05-31T16:25:30.943Z,2.70
2018-05-31T16:27:58.396Z,4.87
2018-05-31T16:30:25.878Z,3.20
2018-05-31T16:32:53.360Z,3.83
2018-05-31T16:35:22.619Z,3.15
2018-05-31T16:37:50.135Z,2.60
2018-05-31T16:40:17.598Z,5.07
2018-05-31T16:42:45.806Z,4.37
2018-05-31T16:45:13.211Z,3.30
2018-05-31T16:47:40.631Z,2.28
2018-05-31T16:50:08.339Z,4.07
2018-05-31T16:52:35.825Z,3.50
2018-05-31T16:55:03.232Z,3.40
2018-05-31T16:57:30.699Z,4.40
2018-05-31T16:59:58.301Z,3.47
2018-05-31T17:02:25.796Z,4.10
2018-05-31T17:04:53.216Z,2.67
2018-05-31T17:07:20.716Z,3.40
2018-05-31T17:09:48.171Z,3.15
2018-05-31T17:12:15.811Z,2.80
2018-05-31T17:14:43.301Z,2.55
2018-05-31T17:17:10.815Z,3.72
2018-05-31T17:19:39.279Z,4.22
2018-05-31T17:22:06.734Z,3.10
2018-05-31T17:24:34.178Z,2.92
2018-05-31T17:27:01.722Z,3.80
2018-05-31T17:29:29.133Z,4.03
2018-05-31T17:31:59.232Z,4.28
2018-05-31T17:34:26.971Z,3.60
2018-05-31T17:36:54.653Z,4.55
2018-05-31T17:39:22.251Z,4.18
2018-05-31T17:41:49.715Z,4.20
2018-05-31T17:44:17.187Z,4.85
2018-05-31T17:46:45.774Z,5.12
2018-05-31T17:49:13.258Z,4.43
2018-05-31T17:51:41.028Z,4.25
2018-05-31T17:54:08.495Z,3.85
2018-05-31T17:56:35.935Z,3.75
2018-05-31T17:59:06.141Z,4.32
2018-05-31T18:01:33.566Z,3.17
2018-05-31T18:04:01.311Z,4.72
2018-05-31T18:06:29.382Z,3.75
2018-05-31T18:08:56.846Z,3.62
2018-05-31T18:11:25.834Z,3.90
2018-05-31T18:13:53.647Z,5.28
2018-05-31T18:16:21.109Z,2.60
2018-05-31T18:18:48.691Z,4.03
2018-05-31T18:21:16.331Z,4.28
2018-05-31T18:23:44.584Z,5.28
2018-05-31T18:26:12.036Z,3.75
2018-05-31T18:28:39.501Z,4.78
2018-05-31T18:31:06.923Z,5.45
2018-05-31T18:33:34.368Z,4.35
2018-05-31T18:36:02.001Z,3.30
2018-05-31T18:38:29.555Z,4.10
2018-05-31T18:40:57.052Z,4.85
2018-05-31T18:45:58.215Z,4.80
2018-05-31T18:48:25.685Z,7.72
2018-05-31T18:50:53.087Z,6.15
2018-05-31T18:53:20.529Z,7.78
2018-05-31T18:55:48.008Z,5.68
2018-05-31T18:58:16.609Z,4.32
2018-05-31T19:00:44.138Z,5.18
2018-05-31T19:03:12.848Z,3.90
2018-05-31T19:05:42.339Z,4.93
2018-05-31T19:08:09.811Z,6.00
2018-05-31T19:10:37.281Z,4.40
2018-05-31T19:13:10.211Z,4.85
2018-05-31T19:15:37.804Z,4.70
2018-05-31T19:18:05.208Z,5.22
2018-05-31T19:20:32.655Z,6.10
2018-05-31T19:23:00.131Z,5.30
2018-05-31T19:25:27.558Z,7.50
2018-05-31T19:27:55.111Z,4.97
2018-05-31T19:30:28.133Z,4.43
2018-05-31T19:32:55.562Z,4.68
2018-05-31T19:35:28.483Z,3.05
2018-05-31T19:37:55.937Z,4.75
2018-05-31T19:40:25.278Z,4.85
2018-05-31T19:42:58.375Z,4.78
2018-05-31T19:45:25.844Z,4.57
2018-05-31T19:47:53.341Z,4.53
2018-05-31T19:50:20.828Z,3.37
2018-05-31T19:52:57.767Z,2.67
2018-05-31T19:55:25.241Z,3.95
2018-05-31T19:57:58.288Z,4.03
2018-05-31T20:00:31.860Z,4.43
2018-05-31T20:03:06.022Z,4.10
2018-05-31T20:05:33.536Z,3.90
2018-05-31T20:08:02.453Z,2.28
2018-05-31T20:10:29.956Z,3.25
2018-05-31T20:12:57.451Z,3.45
2018-05-31T20:15:24.894Z,4.78
2018-05-31T20:17:52.359Z,3.85
2018-05-31T20:20:19.879Z,4.10
2018-05-31T20:22:47.306Z,4.75
2018-05-31T20:25:14.754Z,4.70
2018-05-31T20:27:42.221Z,6.20
2018-05-31T20:30:09.660Z,4.55
2018-05-31T20:32:38.261Z,5.68
2018-05-31T20:35:05.772Z,5.75
2018-05-31T20:37:33.273Z,5.55
2018-05-31T20:40:00.756Z,5.60
2018-05-31T20:42:28.285Z,5.60
2018-05-31T20:44:55.720Z,4.12
2018-05-31T20:47:23.143Z,6.20
2018-05-31T20:49:51.768Z,5.30
2018-05-31T20:52:19.224Z,5.32
2018-05-31T20:54:46.778Z,5.43
2018-05-31T20:57:14.244Z,4.65
2018-05-31T20:59:41.691Z,4.70
2018-05-31T21:02:09.984Z,4.30
2018-05-31T21:04:37.397Z,4.18
2018-05-31T21:07:04.942Z,4.35
2018-05-31T21:09:32.478Z,5.12
2018-05-31T21:12:00.006Z,4.50
2018-05-31T21:14:27.410Z,5.28
2018-05-31T21:16:54.863Z,4.37
2018-05-31T21:19:22.336Z,4.78
2018-05-31T21:21:50.715Z,5.70
2018-05-31T21:24:18.154Z,4.85
2018-05-31T21:26:45.619Z,5.60
2018-05-31T21:29:13.273Z,5.72
2018-05-31T21:31:40.696Z,5.35
2018-05-31T21:34:11.332Z,4.87
2018-05-31T21:36:38.756Z,4.87
2018-05-31T21:39:06.184Z,5.95
2018-05-31T21:41:34.333Z,4.40
2018-05-31T21:44:01.813Z,5.45
2018-05-31T21:46:29.261Z,5.25
2018-05-31T21:48:58.099Z,5.80
2018-05-31T21:51:26.335Z,6.00
2018-05-31T21:53:53.747Z,6.47
2018-05-31T21:56:21.139Z,5.45
2018-05-31T21:58:48.585Z,5.97
2018-05-31T22:03:54.347Z,5.80
2018-05-31T22:06:21.792Z,7.95
2018-05-31T22:08:49.292Z,6.70
2018-05-31T22:11:16.996Z,6.20
2018-05-31T22:13:45.370Z,6.70
2018-05-31T22:16:12.890Z,5.30
2018-05-31T22:18:40.343Z,6.15
2018-05-31T22:21:07.798Z,5.68
2018-05-31T22:23:35.804Z,7.10
2018-05-31T22:26:05.348Z,10.00
2018-05-31T22:28:32.994Z,8.00
2018-05-31T22:31:00.436Z,7.30
2018-05-31T22:33:27.967Z,10.30
2018-05-31T22:35:55.410Z,7.82
2018-05-31T22:38:22.904Z,9.77
2018-05-31T22:40:51.329Z,8.77
2018-05-31T22:43:18.889Z,8.25
2018-05-31T22:45:48.331Z,9.13
2018-05-31T22:48:15.824Z,7.53
2018-05-31T22:50:43.624Z,6.28
2018-05-31T22:53:11.136Z,6.10
2018-05-31T22:55:38.620Z,7.50
2018-05-31T22:58:06.107Z,8.68
2018-05-31T23:00:33.551Z,5.97
2018-05-31T23:03:01.131Z,7.55
2018-05-31T23:05:28.920Z,6.00
2018-05-31T23:07:56.938Z,7.18
2018-05-31T23:10:24.407Z,8.35
2018-05-31T23:12:53.885Z,9.57
2018-05-31T23:15:21.497Z,9.00
2018-05-31T23:17:51.557Z,10.35
2018-05-31T23:20:19.032Z,8.48
2018-05-31T23:22:46.495Z,9.02
2018-05-31T23:25:14.009Z,8.68
2018-05-31T23:27:41.443Z,8.25
2018-05-31T23:30:08.859Z,10.35
2018-05-31T23:32:36.331Z,9.88
2018-05-31T23:35:03.790Z,8.10
2018-05-31T23:37:31.269Z,8.20
2018-05-31T23:39:58.681Z,7.60
2018-05-31T23:42:26.145Z,8.52
2018-05-31T23:44:53.579Z,6.25
2018-05-31T23:47:21.033Z,7.20
2018-05-31T23:49:49.069Z,4.55
2018-05-31T23:52:16.609Z,5.80
2018-05-31T23:54:44.151Z,6.50
2018-05-31T23:57:11.598Z,5.47
2018-05-31T23:59:39.616Z,7.43
